createdAt,value
2018-02-19T00:01:53.898Z,28.10
2018-02-19T00:04:20.962Z,28.53
2018-02-19T00:06:52.616Z,29.27
2018-02-19T00:09:23.172Z,28.30
2018-02-19T00:11:51.703Z,30.83
2018-02-19T00:14:24.349Z,27.93
2018-02-19T00:16:51.658Z,28.33
2018-02-19T00:19:21.756Z,29.43
2018-02-19T00:21:54.113Z,26.87
2018-02-19T00:24:20.911Z,27.40
2018-02-19T00:26:53.460Z,28.67
2018-02-19T00:29:21.073Z,29.00
2018-02-19T00:31:51.430Z,28.40
2018-02-19T00:34:18.199Z,27.53
2018-02-19T00:36:51.305Z,28.70
2018-02-19T00:39:27.941Z,28.00
2018-02-19T00:41:54.739Z,29.57
2018-02-19T00:44:21.412Z,28.50
2018-02-19T00:46:51.771Z,28.70
2018-02-19T00:49:22.237Z,27.77
2018-02-19T00:51:50.730Z,28.37
2018-02-19T00:54:17.674Z,27.70
2018-02-19T00:56:44.465Z,26.50
2018-02-19T00:59:11.237Z,27.70
2018-02-19T01:01:37.978Z,28.37
2018-02-19T01:04:04.671Z,26.87
2018-02-19T01:06:31.387Z,28.70
2018-02-19T01:08:58.166Z,28.33
2018-02-19T01:11:25.048Z,28.90
2018-02-19T01:13:51.772Z,27.93
2018-02-19T01:16:19.540Z,27.53
2018-02-19T01:18:46.461Z,27.80
2018-02-19T01:21:25.055Z,25.77
2018-02-19T01:23:51.760Z,25.73
2018-02-19T01:29:05.473Z,25.70
2018-02-19T01:31:32.857Z,24.27
2018-02-19T01:33:59.819Z,24.20
2018-02-19T01:36:27.185Z,25.07
2018-02-19T01:41:39.733Z,24.40
2018-02-19T01:44:06.420Z,24.10
2018-02-19T01:46:33.229Z,24.23
2018-02-19T01:49:02.187Z,24.57
2018-02-19T01:51:29.111Z,24.73
2018-02-19T01:53:56.000Z,24.70
2018-02-19T01:56:23.673Z,24.33
2018-02-19T01:58:50.909Z,23.27
2018-02-19T02:01:19.694Z,24.20
2018-02-19T02:03:46.662Z,21.87
2018-02-19T02:06:13.490Z,23.20
2018-02-19T02:08:40.191Z,22.10
2018-02-19T02:11:06.942Z,24.83
2018-02-19T02:13:33.778Z,21.17
2018-02-19T02:16:03.688Z,22.97
2018-02-19T02:18:32.220Z,21.60
2018-02-19T02:20:59.069Z,23.37
2018-02-19T02:23:26.142Z,21.60
2018-02-19T02:25:52.939Z,23.50
2018-02-19T02:28:19.691Z,21.07
2018-02-19T02:30:46.424Z,22.00
2018-02-19T02:33:13.333Z,22.60
2018-02-19T02:35:40.022Z,19.33
2018-02-19T02:38:06.775Z,20.77
2018-02-19T02:40:33.480Z,22.27
2018-02-19T02:43:00.984Z,21.40
2018-02-19T02:45:27.788Z,22.10
2018-02-19T02:50:25.724Z,21.80
2018-02-19T02:52:52.501Z,20.90
2018-02-19T02:55:19.254Z,19.90
2018-02-19T02:57:45.985Z,20.47
2018-02-19T03:00:12.714Z,19.90
2018-02-19T03:02:39.656Z,19.43
2018-02-19T03:05:06.415Z,20.50
2018-02-19T03:07:33.111Z,20.60
2018-02-19T03:09:59.891Z,20.00
2018-02-19T03:12:26.620Z,19.87
2018-02-19T03:14:53.304Z,20.20
2018-02-19T03:17:20.010Z,19.10
2018-02-19T03:19:46.767Z,20.60
2018-02-19T03:22:13.478Z,20.40
2018-02-19T03:24:40.295Z,21.53
2018-02-19T03:27:07.028Z,21.40
2018-02-19T03:29:33.788Z,19.73
2018-02-19T03:32:00.557Z,20.87
2018-02-19T03:34:27.524Z,21.30
2018-02-19T03:36:54.258Z,19.00
2018-02-19T03:39:20.956Z,20.43
2018-02-19T03:41:47.797Z,19.17
2018-02-19T03:44:14.495Z,19.27
2018-02-19T03:46:41.310Z,17.70
2018-02-19T03:49:08.058Z,19.60
2018-02-19T03:51:34.782Z,20.30
2018-02-19T03:54:01.512Z,19.83
2018-02-19T03:56:28.400Z,18.30
2018-02-19T03:58:55.136Z,19.57
2018-02-19T04:01:21.813Z,18.50
2018-02-19T04:03:48.609Z,19.70
2018-02-19T04:06:15.321Z,19.23
2018-02-19T04:08:42.194Z,18.47
2018-02-19T04:11:08.950Z,18.40
2018-02-19T04:13:35.695Z,19.60
2018-02-19T04:16:02.400Z,19.20
2018-02-19T04:18:29.530Z,20.17
2018-02-19T04:20:57.258Z,19.70
2018-02-19T04:23:24.073Z,18.70
2018-02-19T04:25:51.130Z,20.03
2018-02-19T04:28:17.850Z,19.47
2018-02-19T04:30:44.561Z,19.67
2018-02-19T04:33:11.283Z,19.30
2018-02-19T04:35:37.993Z,18.70
2018-02-19T04:38:04.678Z,19.07
2018-02-19T04:40:31.458Z,19.53
2018-02-19T04:42:59.943Z,18.07
2018-02-19T04:45:31.363Z,20.43
2018-02-19T04:47:58.050Z,19.60
2018-02-19T04:50:24.740Z,20.83
2018-02-19T04:52:51.434Z,19.80
2018-02-19T04:55:18.159Z,21.53
2018-02-19T04:57:44.877Z,20.27
2018-02-19T05:00:11.579Z,20.20
2018-02-19T05:02:38.313Z,20.20
2018-02-19T05:05:05.001Z,19.43
2018-02-19T05:07:31.685Z,19.33
2018-02-19T05:09:59.142Z,20.90
2018-02-19T05:12:26.039Z,20.53
2018-02-19T05:14:52.791Z,20.10
2018-02-19T05:17:19.761Z,20.13
2018-02-19T05:19:46.541Z,18.87
2018-02-19T05:22:14.014Z,19.70
2018-02-19T05:24:40.924Z,20.10
2018-02-19T05:27:07.736Z,20.00
2018-02-19T05:29:34.486Z,20.80
2018-02-19T05:32:01.209Z,20.83
2018-02-19T05:34:27.967Z,19.87
2018-02-19T05:36:54.785Z,19.80
2018-02-19T05:39:21.754Z,20.90
2018-02-19T05:41:48.440Z,22.00
2018-02-19T05:44:15.224Z,21.70
2018-02-19T05:46:41.970Z,20.30
2018-02-19T05:49:08.770Z,20.50
2018-02-19T05:51:36.122Z,21.73
2018-02-19T05:54:03.529Z,21.17
2018-02-19T05:56:30.599Z,21.70
2018-02-19T05:58:57.398Z,19.97
2018-02-19T06:01:24.111Z,20.67
2018-02-19T06:03:50.952Z,19.80
2018-02-19T06:06:17.792Z,19.83
2018-02-19T06:08:44.572Z,19.43
2018-02-19T06:11:11.338Z,20.70
2018-02-19T06:13:38.066Z,22.10
2018-02-19T06:16:04.830Z,20.70
2018-02-19T06:18:31.528Z,21.60
2018-02-19T06:20:58.277Z,20.43
2018-02-19T06:23:25.110Z,20.03
2018-02-19T06:25:51.907Z,21.43
2018-02-19T06:28:18.641Z,20.57
2018-02-19T06:30:45.360Z,22.00
2018-02-19T06:33:12.108Z,20.87
2018-02-19T06:35:38.833Z,21.40
2018-02-19T06:40:53.230Z,21.43
2018-02-19T06:46:15.366Z,20.53
2018-02-19T06:48:42.229Z,21.37
2018-02-19T06:51:09.335Z,20.60
2018-02-19T06:53:36.173Z,21.47
2018-02-19T06:56:03.797Z,20.93
2018-02-19T06:58:30.709Z,21.97
2018-02-19T07:01:01.673Z,20.63
2018-02-19T07:03:28.586Z,22.30
2018-02-19T07:05:55.424Z,20.77
2018-02-19T07:08:22.561Z,20.47
2018-02-19T07:13:20.444Z,21.40
2018-02-19T07:15:47.309Z,20.80
2018-02-19T07:18:14.062Z,19.47
2018-02-19T07:20:41.167Z,21.27
2018-02-19T07:23:07.883Z,20.83
2018-02-19T07:25:34.671Z,20.33
2018-02-19T07:28:02.446Z,20.10
2018-02-19T07:30:29.280Z,20.60
2018-02-19T07:32:56.177Z,20.70
2018-02-19T07:35:23.123Z,20.70
2018-02-19T07:37:49.899Z,20.13
2018-02-19T07:40:16.665Z,20.40
2018-02-19T07:42:43.483Z,20.37
2018-02-19T07:45:10.265Z,19.97
2018-02-19T07:47:38.002Z,18.90
2018-02-19T07:50:04.901Z,20.90
2018-02-19T07:52:31.676Z,20.77
2018-02-19T07:54:58.398Z,21.40
2018-02-19T07:57:25.158Z,21.03
2018-02-19T07:59:51.846Z,20.73
2018-02-19T08:02:18.618Z,19.93
2018-02-19T08:04:45.389Z,22.40
2018-02-19T08:07:12.084Z,21.37
2018-02-19T08:09:39.529Z,21.00
2018-02-19T08:12:06.246Z,20.10
2018-02-19T08:14:33.012Z,20.07
2018-02-19T08:16:59.802Z,23.33
2018-02-19T08:19:26.680Z,20.70
2018-02-19T08:21:53.482Z,19.90
2018-02-19T08:24:20.317Z,19.60
2018-02-19T08:26:47.095Z,20.80
2018-02-19T08:29:13.921Z,22.00
2018-02-19T08:31:40.750Z,20.97
2018-02-19T08:34:07.671Z,21.10
2018-02-19T08:36:34.351Z,21.77
2018-02-19T08:39:01.130Z,19.87
2018-02-19T08:41:27.889Z,21.17
2018-02-19T08:43:54.710Z,21.67
2018-02-19T08:46:21.461Z,21.10
2018-02-19T08:48:48.260Z,21.90
2018-02-19T08:51:15.085Z,20.13
2018-02-19T08:53:42.105Z,20.07
2018-02-19T08:56:08.814Z,22.37
2018-02-19T08:58:35.560Z,20.10
2018-02-19T09:01:02.250Z,20.47
2018-02-19T09:03:29.094Z,22.23
2018-02-19T09:05:55.910Z,20.70
2018-02-19T09:08:22.682Z,19.57
2018-02-19T09:10:49.387Z,20.60
2018-02-19T09:13:16.107Z,20.77
2018-02-19T09:15:42.828Z,20.57
2018-02-19T09:18:09.720Z,19.30
2018-02-19T09:20:37.309Z,20.50
2018-02-19T09:23:04.354Z,19.20
2018-02-19T09:25:31.037Z,20.17
2018-02-19T09:27:57.932Z,19.87
2018-02-19T09:30:24.668Z,20.10
2018-02-19T09:32:52.276Z,19.07
2018-02-19T09:35:18.974Z,19.50
2018-02-19T09:37:45.652Z,21.50
2018-02-19T09:40:12.374Z,19.57
2018-02-19T09:42:39.075Z,21.17
2018-02-19T09:45:05.797Z,20.43
2018-02-19T09:47:32.672Z,19.80
2018-02-19T09:49:59.789Z,19.23
2018-02-19T09:52:26.574Z,19.97
2018-02-19T09:54:53.306Z,20.57
2018-02-19T09:57:20.051Z,20.33
2018-02-19T09:59:46.794Z,18.60
2018-02-19T10:02:13.610Z,18.17
2018-02-19T10:04:40.319Z,16.90
2018-02-19T10:07:07.136Z,16.43
2018-02-19T10:09:33.942Z,16.23
2018-02-19T10:12:00.751Z,14.77
2018-02-19T10:14:27.514Z,14.80
2018-02-19T10:16:54.362Z,14.80
2018-02-19T10:19:21.241Z,14.03
2018-02-19T10:21:47.964Z,14.10
2018-02-19T10:24:16.972Z,14.57
2018-02-19T10:26:43.702Z,13.43
2018-02-19T10:29:10.569Z,14.23
2018-02-19T10:31:37.335Z,14.00
2018-02-19T10:34:04.075Z,13.60
2018-02-19T10:36:30.809Z,13.07
2018-02-19T10:38:57.547Z,12.57
2018-02-19T10:41:24.264Z,12.93
2018-02-19T10:43:50.966Z,14.10
2018-02-19T10:46:17.677Z,17.27
2018-02-19T10:48:44.473Z,15.53
2018-02-19T10:51:11.510Z,16.90
2018-02-19T10:53:38.306Z,16.07
2018-02-19T10:56:05.445Z,15.30
2018-02-19T10:58:32.121Z,15.97
2018-02-19T11:00:59.150Z,16.20
2018-02-19T11:03:25.880Z,16.80
2018-02-19T11:05:53.146Z,16.77
2018-02-19T11:08:20.047Z,15.80
2018-02-19T11:10:46.781Z,17.47
2018-02-19T11:13:13.483Z,16.30
2018-02-19T11:15:41.343Z,16.13
2018-02-19T11:18:08.274Z,15.33
2018-02-19T11:20:35.130Z,15.77
2018-02-19T11:23:01.993Z,15.77
2018-02-19T11:25:28.703Z,16.53
2018-02-19T11:27:55.406Z,15.53
2018-02-19T11:30:22.199Z,15.63
2018-02-19T11:32:48.927Z,15.80
2018-02-19T11:35:15.957Z,16.27
2018-02-19T11:37:42.792Z,15.43
2018-02-19T11:40:09.561Z,15.33
2018-02-19T11:42:36.592Z,16.17
2018-02-19T11:45:03.314Z,16.53
2018-02-19T11:47:30.219Z,16.83
2018-02-19T11:49:57.004Z,14.83
2018-02-19T11:52:23.697Z,16.03
2018-02-19T11:54:50.571Z,16.53
2018-02-19T11:57:17.833Z,15.00
2018-02-19T11:59:44.587Z,18.67
2018-02-19T12:02:11.272Z,19.53
2018-02-19T12:04:37.967Z,18.67
2018-02-19T12:07:04.722Z,18.57
2018-02-19T12:09:31.498Z,19.43
2018-02-19T12:11:58.253Z,18.27
2018-02-19T12:14:25.017Z,19.73
2018-02-19T12:16:52.638Z,20.00
2018-02-19T12:19:19.400Z,17.17
2018-02-19T12:21:50.531Z,18.83
2018-02-19T12:24:17.865Z,18.30
2018-02-19T12:26:44.551Z,17.97
2018-02-19T12:29:11.254Z,18.10
2018-02-19T12:31:38.132Z,19.93
2018-02-19T12:34:04.901Z,18.70
2018-02-19T12:36:31.649Z,21.37
2018-02-19T12:38:58.365Z,21.17
2018-02-19T12:41:25.043Z,19.73
2018-02-19T12:43:51.967Z,19.27
2018-02-19T12:46:18.748Z,17.80
2018-02-19T12:48:45.454Z,18.03
2018-02-19T12:51:12.230Z,17.90
2018-02-19T12:53:38.959Z,18.53
2018-02-19T12:56:05.794Z,19.50
2018-02-19T12:58:32.539Z,19.50
2018-02-19T13:00:59.320Z,20.17
2018-02-19T13:03:26.101Z,19.80
2018-02-19T13:05:52.842Z,20.80
2018-02-19T13:08:20.289Z,19.30
2018-02-19T13:10:47.133Z,21.00
2018-02-19T13:13:13.942Z,19.80
2018-02-19T13:15:47.086Z,18.60
2018-02-19T13:18:16.562Z,21.50
2018-02-19T13:20:45.865Z,19.80
2018-02-19T13:23:12.558Z,19.27
2018-02-19T13:25:40.349Z,20.50
2018-02-19T13:28:07.165Z,19.17
2018-02-19T13:30:33.892Z,19.33
2018-02-19T13:33:00.941Z,21.03
2018-02-19T13:35:27.624Z,19.17
2018-02-19T13:37:54.531Z,19.40
2018-02-19T13:40:21.258Z,19.13
2018-02-19T13:42:48.082Z,18.63
2018-02-19T13:45:14.817Z,20.40
2018-02-19T13:47:41.695Z,20.47
2018-02-19T13:50:08.457Z,20.73
2018-02-19T13:52:35.298Z,19.13
2018-02-19T13:55:02.062Z,19.20
2018-02-19T13:57:28.924Z,19.70
2018-02-19T13:59:55.713Z,17.47
2018-02-19T14:02:22.522Z,19.70
2018-02-19T14:04:49.327Z,18.60
2018-02-19T14:07:16.924Z,17.70
2018-02-19T14:09:43.627Z,17.73
2018-02-19T14:12:10.446Z,17.40
2018-02-19T14:14:37.279Z,18.13
2018-02-19T14:17:04.025Z,19.07
2018-02-19T14:19:30.800Z,17.63
2018-02-19T14:21:57.511Z,18.40
2018-02-19T14:24:24.485Z,19.17
2018-02-19T14:26:51.469Z,19.83
2018-02-19T14:29:19.111Z,19.30
2018-02-19T14:31:45.833Z,18.50
2018-02-19T14:34:12.571Z,18.53
2018-02-19T14:36:39.421Z,19.47
2018-02-19T14:39:06.255Z,18.80
2018-02-19T14:41:33.015Z,19.00
2018-02-19T14:43:59.782Z,18.60
2018-02-19T14:46:26.769Z,19.10
2018-02-19T14:48:53.502Z,19.27
2018-02-19T14:51:20.270Z,18.93
2018-02-19T14:53:46.959Z,17.60
2018-02-19T14:56:13.738Z,18.87
2018-02-19T14:58:40.514Z,19.67
2018-02-19T15:01:07.215Z,20.40
2018-02-19T15:03:33.964Z,18.40
2018-02-19T15:06:00.900Z,19.00
2018-02-19T15:08:27.612Z,19.07
2018-02-19T15:10:54.327Z,18.30
2018-02-19T15:13:21.118Z,17.80
2018-02-19T15:15:48.208Z,20.30
2018-02-19T15:18:15.083Z,21.40
2018-02-19T15:20:41.850Z,20.03
2018-02-19T15:23:08.578Z,17.90
2018-02-19T15:25:35.341Z,18.27
2018-02-19T15:28:02.068Z,18.90
2018-02-19T15:30:28.846Z,19.30
2018-02-19T15:32:55.756Z,19.17
2018-02-19T15:35:22.554Z,19.17
2018-02-19T15:37:49.504Z,20.00
2018-02-19T15:40:16.432Z,18.30
2018-02-19T15:42:43.127Z,18.90
2018-02-19T15:45:09.811Z,18.40
2018-02-19T15:47:36.695Z,18.87
2018-02-19T15:50:03.479Z,19.10
2018-02-19T15:52:30.239Z,19.90
2018-02-19T15:54:57.265Z,18.53
2018-02-19T15:57:23.969Z,18.87
2018-02-19T15:59:51.466Z,18.03
2018-02-19T16:02:18.185Z,18.40
2018-02-19T16:04:44.915Z,18.70
2018-02-19T16:07:12.163Z,18.97
2018-02-19T16:09:38.988Z,19.23
2018-02-19T16:12:05.837Z,19.10
2018-02-19T16:14:32.560Z,17.87
2018-02-19T16:16:59.495Z,19.27
2018-02-19T16:19:26.271Z,20.30
2018-02-19T16:21:53.062Z,20.10
2018-02-19T16:24:19.771Z,20.03
2018-02-19T16:26:46.589Z,20.73
2018-02-19T16:29:13.455Z,21.40
2018-02-19T16:31:40.201Z,21.17
2018-02-19T16:34:06.982Z,20.80
2018-02-19T16:36:33.947Z,19.90
2018-02-19T16:39:00.786Z,20.43
2018-02-19T16:41:27.527Z,20.10
2018-02-19T16:43:54.309Z,21.60
2018-02-19T16:46:21.227Z,21.27
2018-02-19T16:48:48.055Z,20.40
2018-02-19T16:51:14.769Z,20.43
2018-02-19T16:53:41.529Z,23.00
2018-02-19T16:56:08.334Z,21.37
2018-02-19T16:58:35.433Z,20.40
2018-02-19T17:01:02.156Z,19.87
2018-02-19T17:03:29.751Z,21.97
2018-02-19T17:05:56.890Z,19.50
2018-02-19T17:08:23.696Z,23.83
2018-02-19T17:10:50.811Z,20.57
2018-02-19T17:13:17.483Z,22.83
2018-02-19T17:15:44.202Z,21.67
2018-02-19T17:18:11.994Z,22.17
2018-02-19T17:20:38.908Z,21.00
2018-02-19T17:23:05.598Z,23.03
2018-02-19T17:25:32.382Z,21.00
2018-02-19T17:27:59.475Z,21.83
2018-02-19T17:30:26.433Z,24.60
2018-02-19T17:32:54.387Z,20.90
2018-02-19T17:35:22.179Z,22.73
2018-02-19T17:37:48.970Z,21.80
2018-02-19T17:40:15.698Z,21.97
2018-02-19T17:42:43.515Z,23.90
2018-02-19T17:45:10.268Z,22.63
2018-02-19T17:47:36.970Z,23.10
2018-02-19T17:50:04.003Z,21.63
2018-02-19T17:52:30.795Z,22.53
2018-02-19T17:54:57.540Z,21.63
2018-02-19T17:57:24.376Z,22.20
2018-02-19T17:59:51.170Z,21.00
2018-02-19T18:02:18.253Z,22.63
2018-02-19T18:04:45.106Z,21.10
2018-02-19T18:07:12.008Z,21.03
2018-02-19T18:09:52.122Z,23.47
2018-02-19T18:12:18.976Z,21.87
2018-02-19T18:14:46.424Z,23.37
2018-02-19T18:17:13.350Z,22.20
2018-02-19T18:19:40.061Z,22.83
2018-02-19T18:22:06.805Z,22.87
2018-02-19T18:24:33.578Z,22.97
2018-02-19T18:27:00.306Z,24.60
2018-02-19T18:29:27.167Z,22.73
2018-02-19T18:31:53.945Z,25.07
2018-02-19T18:34:21.031Z,25.20
2018-02-19T18:36:48.556Z,23.20
2018-02-19T18:39:15.445Z,23.70
2018-02-19T18:41:42.265Z,24.47
2018-02-19T18:44:08.955Z,23.60
2018-02-19T18:46:35.684Z,25.03
2018-02-19T18:49:02.609Z,23.43
2018-02-19T18:51:29.336Z,27.10
2018-02-19T18:53:56.116Z,25.10
2018-02-19T18:56:22.877Z,24.73
2018-02-19T18:58:50.440Z,25.17
2018-02-19T19:01:17.720Z,26.20
2018-02-19T19:03:44.560Z,25.83
2018-02-19T19:06:11.339Z,23.73
2018-02-19T19:08:43.932Z,24.83
2018-02-19T19:11:10.809Z,25.90
2018-02-19T19:13:37.591Z,22.50
2018-02-19T19:16:04.357Z,22.30
2018-02-19T19:18:32.371Z,23.60
2018-02-19T19:20:59.609Z,23.70
2018-02-19T19:23:26.418Z,24.07
2018-02-19T19:25:53.209Z,25.70
2018-02-19T19:28:19.948Z,24.50
2018-02-19T19:30:47.638Z,25.07
2018-02-19T19:33:14.447Z,25.77
2018-02-19T19:35:41.163Z,24.93
2018-02-19T19:38:07.948Z,25.23
2018-02-19T19:40:35.174Z,24.00
2018-02-19T19:43:02.441Z,25.97
2018-02-19T19:45:29.302Z,23.80
2018-02-19T19:47:56.044Z,24.50
2018-02-19T19:50:25.085Z,26.07
2018-02-19T19:52:51.882Z,24.80
2018-02-19T19:55:18.621Z,25.07
2018-02-19T19:57:46.061Z,25.07
2018-02-19T20:00:17.347Z,26.37
2018-02-19T20:02:45.879Z,24.90
2018-02-19T20:05:14.580Z,24.70
2018-02-19T20:07:41.367Z,23.80
2018-02-19T20:10:08.349Z,24.53
2018-02-19T20:12:35.519Z,24.50
2018-02-19T20:15:04.697Z,25.70
2018-02-19T20:17:41.430Z,26.40
2018-02-19T20:20:09.619Z,25.77
2018-02-19T20:22:36.697Z,24.47
2018-02-19T20:25:03.638Z,25.30
2018-02-19T20:27:30.897Z,24.30
2018-02-19T20:32:29.300Z,26.30
2018-02-19T20:37:28.091Z,26.50
2018-02-19T20:39:54.923Z,25.23
2018-02-19T20:42:21.749Z,25.50
2018-02-19T20:44:48.669Z,26.17
2018-02-19T20:47:15.474Z,25.97
2018-02-19T20:49:42.318Z,26.40
2018-02-19T20:52:09.810Z,26.10
2018-02-19T20:54:36.991Z,26.53
2018-02-19T20:57:03.896Z,26.27
2018-02-19T20:59:30.735Z,28.33
2018-02-19T21:01:57.541Z,28.80
2018-02-19T21:04:24.534Z,26.53
2018-02-19T21:06:51.636Z,26.90
2018-02-19T21:09:18.452Z,26.70
2018-02-19T21:11:45.273Z,28.30
2018-02-19T21:14:11.977Z,26.90
2018-02-19T21:16:38.780Z,26.37
2018-02-19T21:19:05.593Z,26.33
2018-02-19T21:21:32.804Z,27.17
2018-02-19T21:24:01.092Z,27.43
2018-02-19T21:26:27.789Z,25.67
2018-02-19T21:28:54.639Z,26.60
2018-02-19T21:31:21.364Z,28.13
2018-02-19T21:33:48.117Z,25.40
2018-02-19T21:36:14.874Z,27.60
2018-02-19T21:38:42.244Z,27.07
2018-02-19T21:41:10.941Z,27.10
2018-02-19T21:46:10.033Z,27.37
2018-02-19T21:48:37.306Z,27.70
2018-02-19T21:51:04.200Z,28.03
2018-02-19T21:53:30.988Z,26.63
2018-02-19T21:55:57.762Z,27.10
2018-02-19T21:58:24.468Z,27.30
2018-02-19T22:00:51.194Z,25.80
2018-02-19T22:03:19.096Z,28.10
2018-02-19T22:05:46.916Z,27.40
2018-02-19T22:08:14.032Z,27.03
2018-02-19T22:10:40.809Z,28.40
2018-02-19T22:13:07.732Z,28.30
2018-02-19T22:15:42.832Z,27.50
2018-02-19T22:18:09.606Z,27.27
2018-02-19T22:20:38.746Z,27.10
2018-02-19T22:23:09.001Z,26.50
2018-02-19T22:25:35.758Z,28.70
2018-02-19T22:28:02.710Z,27.20
2018-02-19T22:30:29.752Z,28.87
2018-02-19T22:32:56.423Z,28.40
2018-02-19T22:35:23.195Z,28.47
2018-02-19T22:40:21.022Z,27.37
2018-02-19T22:42:47.965Z,27.73
2018-02-19T22:45:18.344Z,27.43
2018-02-19T22:47:48.130Z,26.87
2018-02-19T22:50:14.852Z,28.70
2018-02-19T22:52:41.677Z,28.10
2018-02-19T22:55:09.032Z,27.77
2018-02-19T22:57:35.778Z,26.20
2018-02-19T23:00:02.756Z,28.53
2018-02-19T23:02:29.510Z,25.43
2018-02-19T23:04:56.242Z,27.40
2018-02-19T23:07:23.131Z,27.10
2018-02-19T23:09:49.832Z,27.23
2018-02-19T23:12:16.584Z,26.57
2018-02-19T23:14:49.839Z,26.20
2018-02-19T23:17:16.773Z,27.73
2018-02-19T23:19:44.318Z,27.20
2018-02-19T23:22:11.087Z,26.87
2018-02-19T23:24:38.210Z,27.90
2018-02-19T23:27:05.032Z,27.57
2018-02-19T23:29:31.751Z,26.73
2018-02-19T23:31:58.540Z,27.97
2018-02-19T23:34:26.355Z,26.07
2018-02-19T23:36:53.236Z,25.43
2018-02-19T23:39:20.000Z,29.30
2018-02-19T23:41:46.714Z,27.87
2018-02-19T23:44:13.519Z,28.27
2018-02-19T23:46:40.326Z,26.97
2018-02-19T23:49:10.330Z,26.67
2018-02-19T23:51:49.798Z,28.10
2018-02-19T23:54:19.502Z,28.70
2018-02-19T23:56:47.029Z,28.67
2018-02-19T23:59:13.723Z,29.37
